createdAt,value
2023-03-14T00:00:03.332Z,19.05
2023-03-14T00:02:38.462Z,19.10
2023-03-14T00:05:05.265Z,19.95
2023-03-14T00:07:31.593Z,19.58
2023-03-14T00:09:58.011Z,19.08
2023-03-14T00:12:24.430Z,13.50
2023-03-14T00:14:50.759Z,18.07
2023-03-14T00:17:17.015Z,11.00
2023-03-14T00:19:43.348Z,9.43
2023-03-14T00:22:09.673Z,10.85
2023-03-14T00:24:36.146Z,12.27
2023-03-14T00:27:02.498Z,13.07
2023-03-14T00:29:28.842Z,16.67
2023-03-14T00:31:55.185Z,13.35
2023-03-14T00:34:21.573Z,14.77
2023-03-14T00:36:47.868Z,13.98
2023-03-14T00:39:14.153Z,18.77
2023-03-14T00:41:40.437Z,15.23
2023-03-14T00:44:06.807Z,15.02
2023-03-14T00:46:33.219Z,15.48
2023-03-14T00:48:59.528Z,14.82
2023-03-14T00:51:25.937Z,13.73
2023-03-14T00:53:52.581Z,17.02
2023-03-14T00:56:18.986Z,16.25
2023-03-14T00:58:45.300Z,18.38
2023-03-14T01:01:19.744Z,18.13
2023-03-14T01:03:46.764Z,11.13
2023-03-14T01:06:19.097Z,14.88
2023-03-14T01:08:46.049Z,12.43
2023-03-14T01:11:15.802Z,19.27
2023-03-14T01:13:42.495Z,10.48
2023-03-14T01:16:11.452Z,11.67
2023-03-14T01:18:39.448Z,9.43
2023-03-14T01:21:15.233Z,10.27
2023-03-14T01:23:41.977Z,9.93
2023-03-14T01:26:17.404Z,10.75
2023-03-14T01:28:43.736Z,16.53
2023-03-14T01:31:11.891Z,16.80
2023-03-14T01:33:38.597Z,11.73
2023-03-14T01:36:06.813Z,12.50
2023-03-14T01:38:34.933Z,11.60
2023-03-14T01:41:01.886Z,12.23
2023-03-14T01:43:28.797Z,10.45
2023-03-14T01:46:07.555Z,14.10
2023-03-14T01:48:37.115Z,12.35
2023-03-14T01:51:07.861Z,13.60
2023-03-14T01:53:34.990Z,15.27
2023-03-14T01:56:01.490Z,11.15
2023-03-14T01:58:30.823Z,13.77
2023-03-14T02:00:59.394Z,14.07
2023-03-14T02:03:27.947Z,11.48
2023-03-14T02:05:58.855Z,14.50
2023-03-14T02:08:25.211Z,10.40
2023-03-14T02:10:52.121Z,15.73
2023-03-14T02:13:20.838Z,17.27
2023-03-14T02:15:48.095Z,11.98
2023-03-14T02:18:16.992Z,16.53
2023-03-14T02:20:54.072Z,14.32
2023-03-14T02:23:35.086Z,11.05
2023-03-14T02:26:11.525Z,11.68
2023-03-14T02:28:37.939Z,12.25
2023-03-14T02:31:04.696Z,12.87
2023-03-14T02:33:31.657Z,10.77
2023-03-14T02:36:02.319Z,10.90
2023-03-14T02:38:34.402Z,12.25
2023-03-14T02:41:00.772Z,12.35
2023-03-14T02:43:27.173Z,10.90
2023-03-14T02:45:54.424Z,11.90
2023-03-14T02:48:48.882Z,7.13
2023-03-14T02:51:16.198Z,9.98
2023-03-14T02:53:42.610Z,10.70
2023-03-14T02:56:10.067Z,12.83
2023-03-14T02:58:37.328Z,9.82
2023-03-14T03:01:03.900Z,14.65
2023-03-14T03:03:30.349Z,8.55
2023-03-14T03:05:57.152Z,13.73
2023-03-14T03:08:25.364Z,12.80
2023-03-14T03:10:51.925Z,10.73
2023-03-14T03:13:18.885Z,13.35
2023-03-14T03:15:45.610Z,11.88
2023-03-14T03:18:12.098Z,14.10
2023-03-14T03:20:38.602Z,8.03
2023-03-14T03:23:05.268Z,12.32
2023-03-14T03:25:32.013Z,11.70
2023-03-14T03:27:58.605Z,10.65
2023-03-14T03:30:25.008Z,5.50
2023-03-14T03:32:51.389Z,10.33
2023-03-14T03:35:17.911Z,8.77
2023-03-14T03:37:44.245Z,15.60
2023-03-14T03:40:11.136Z,12.10
2023-03-14T03:42:37.840Z,9.70
2023-03-14T03:45:05.290Z,10.23
2023-03-14T03:47:32.535Z,18.08
2023-03-14T03:49:58.904Z,12.95
2023-03-14T03:52:25.340Z,12.30
2023-03-14T03:54:52.737Z,9.52
2023-03-14T03:57:19.085Z,12.23
2023-03-14T03:59:45.389Z,9.65
2023-03-14T04:02:11.830Z,14.98
2023-03-14T04:04:38.465Z,11.43
2023-03-14T04:07:05.087Z,10.20
2023-03-14T04:09:31.682Z,8.70
2023-03-14T04:11:58.014Z,10.88
2023-03-14T04:14:24.731Z,9.70
2023-03-14T04:16:51.068Z,11.77
2023-03-14T04:19:17.383Z,10.90
2023-03-14T04:21:43.679Z,9.13
2023-03-14T04:24:10.034Z,12.43
2023-03-14T04:26:36.378Z,11.73
2023-03-14T04:29:02.873Z,12.75
2023-03-14T04:31:29.304Z,10.82
2023-03-14T04:33:55.638Z,9.27
2023-03-14T04:36:21.928Z,8.00
2023-03-14T04:38:48.228Z,14.05
2023-03-14T04:41:14.551Z,12.43
2023-03-14T04:43:40.914Z,11.68
2023-03-14T04:46:07.261Z,10.83
2023-03-14T04:48:33.707Z,10.60
2023-03-14T04:51:00.126Z,11.35
2023-03-14T04:53:26.416Z,12.18
2023-03-14T04:55:55.089Z,10.93
2023-03-14T04:58:22.208Z,11.63
2023-03-14T05:00:48.966Z,16.83
2023-03-14T05:03:16.843Z,12.45
2023-03-14T05:05:43.620Z,12.00
2023-03-14T05:08:10.565Z,15.65
2023-03-14T05:10:37.185Z,5.57
2023-03-14T05:13:04.196Z,9.40
2023-03-14T05:15:30.681Z,9.25
2023-03-14T05:17:57.155Z,12.98
2023-03-14T05:20:23.548Z,9.38
2023-03-14T05:22:49.874Z,12.73
2023-03-14T05:25:16.216Z,8.80
2023-03-14T05:27:42.591Z,8.43
2023-03-14T05:30:09.989Z,7.85
2023-03-14T05:32:36.312Z,9.00
2023-03-14T05:35:02.647Z,13.57
2023-03-14T05:37:29.194Z,10.20
2023-03-14T05:39:55.480Z,9.52
2023-03-14T05:42:21.766Z,8.95
2023-03-14T05:44:48.113Z,11.57
2023-03-14T05:47:14.414Z,10.30
2023-03-14T05:49:40.733Z,5.47
2023-03-14T05:52:07.092Z,7.53
2023-03-14T05:54:33.601Z,7.55
2023-03-14T05:56:59.928Z,11.82
2023-03-14T05:59:26.575Z,7.10
2023-03-14T06:01:53.116Z,6.18
2023-03-14T06:04:19.522Z,9.23
2023-03-14T06:06:45.852Z,7.50
2023-03-14T06:09:12.124Z,5.85
2023-03-14T06:11:38.454Z,7.53
2023-03-14T06:14:04.749Z,5.63
2023-03-14T06:16:31.205Z,9.20
2023-03-14T06:18:57.594Z,6.40
2023-03-14T06:21:24.021Z,4.05
2023-03-14T06:23:50.351Z,8.83
2023-03-14T06:26:16.653Z,3.03
2023-03-14T06:28:42.947Z,4.60
2023-03-14T06:31:09.322Z,4.45
2023-03-14T06:33:36.062Z,3.03
2023-03-14T06:36:02.376Z,2.90
2023-03-14T06:38:28.773Z,5.50
2023-03-14T06:40:55.069Z,2.80
2023-03-14T06:43:21.375Z,4.03
2023-03-14T06:45:47.737Z,1.20
2023-03-14T06:48:14.148Z,3.17
2023-03-14T06:50:40.806Z,2.15
2023-03-14T06:53:07.162Z,1.88
2023-03-14T06:55:33.533Z,5.03
2023-03-14T06:57:59.798Z,5.25
2023-03-14T07:00:26.139Z,1.20
2023-03-14T07:02:52.502Z,4.30
2023-03-14T07:05:18.898Z,2.92
2023-03-14T07:07:45.183Z,3.67
2023-03-14T07:10:11.874Z,3.38
2023-03-14T07:12:38.176Z,4.57
2023-03-14T07:15:19.972Z,2.92
2023-03-14T07:17:47.609Z,3.30
2023-03-14T07:20:14.190Z,1.92
2023-03-14T07:22:40.590Z,3.60
2023-03-14T07:25:07.293Z,2.03
2023-03-14T07:27:33.609Z,2.83
2023-03-14T07:29:59.946Z,3.00
2023-03-14T07:32:27.329Z,2.33
2023-03-14T07:34:53.665Z,3.03
2023-03-14T07:37:20.046Z,1.53
2023-03-14T07:39:46.379Z,3.55
2023-03-14T07:42:12.924Z,2.08
2023-03-14T07:44:39.216Z,3.80
2023-03-14T07:47:05.601Z,1.63
2023-03-14T07:49:31.938Z,4.57
2023-03-14T07:51:58.347Z,2.75
2023-03-14T07:54:24.859Z,2.55
2023-03-14T07:56:52.088Z,6.85
2023-03-14T07:59:19.300Z,5.88
2023-03-14T08:01:45.687Z,10.20
2023-03-14T08:04:12.186Z,4.93
2023-03-14T08:06:38.742Z,5.03
2023-03-14T08:09:05.607Z,6.38
2023-03-14T08:11:32.001Z,2.92
2023-03-14T08:13:58.359Z,4.70
2023-03-14T08:16:24.763Z,4.55
2023-03-14T08:18:51.196Z,4.35
2023-03-14T08:21:17.602Z,7.63
2023-03-14T08:23:44.035Z,4.95
2023-03-14T08:26:11.551Z,4.50
2023-03-14T08:28:37.978Z,3.67
2023-03-14T08:31:04.709Z,2.03
2023-03-14T08:33:31.327Z,2.13
2023-03-14T08:36:00.009Z,3.33
2023-03-14T08:38:26.666Z,2.43
2023-03-14T08:41:00.437Z,4.25
2023-03-14T08:43:28.345Z,6.72
2023-03-14T08:45:58.610Z,5.75
2023-03-14T08:48:25.088Z,7.88
2023-03-14T08:50:51.497Z,5.17
2023-03-14T08:53:17.913Z,5.55
2023-03-14T08:55:44.297Z,5.18
2023-03-14T08:58:10.770Z,4.13
2023-03-14T09:00:37.482Z,4.55
2023-03-14T09:03:04.073Z,5.03
2023-03-14T09:05:34.487Z,5.45
2023-03-14T09:08:01.279Z,8.55
2023-03-14T09:10:27.639Z,9.43
2023-03-14T09:12:53.989Z,6.15
2023-03-14T09:15:20.407Z,8.80
2023-03-14T09:17:46.847Z,7.20
2023-03-14T09:20:13.335Z,8.05
2023-03-14T09:22:39.725Z,11.80
2023-03-14T09:25:06.948Z,6.75
2023-03-14T09:27:33.457Z,14.90
2023-03-14T09:29:59.800Z,12.23
2023-03-14T09:32:26.269Z,15.15
2023-03-14T09:34:52.690Z,8.68
2023-03-14T09:37:19.079Z,11.77
2023-03-14T09:39:45.378Z,9.33
2023-03-14T09:42:17.233Z,17.02
2023-03-14T09:44:54.075Z,11.85
2023-03-14T09:47:22.144Z,7.63
2023-03-14T09:49:48.432Z,8.60
2023-03-14T09:52:49.096Z,7.47
2023-03-14T09:55:21.915Z,10.80
2023-03-14T09:57:50.994Z,3.40
2023-03-14T10:00:24.121Z,9.07
2023-03-14T10:03:22.062Z,4.63
2023-03-14T10:05:48.604Z,9.60
2023-03-14T10:08:15.143Z,11.60
2023-03-14T10:10:42.946Z,4.82
2023-03-14T10:13:27.295Z,9.77
2023-03-14T10:15:56.585Z,11.30
2023-03-14T10:18:24.430Z,11.77
2023-03-14T10:21:07.973Z,13.88
2023-03-14T10:23:35.793Z,10.50
2023-03-14T10:26:08.092Z,19.27
2023-03-14T10:28:40.483Z,13.30
2023-03-14T10:31:07.545Z,18.07
2023-03-14T10:33:37.135Z,21.00
2023-03-14T10:36:16.996Z,17.17
2023-03-14T10:38:44.363Z,16.27
2023-03-14T10:41:24.270Z,10.30
2023-03-14T10:43:54.241Z,10.37
2023-03-14T10:46:21.512Z,14.65
2023-03-14T10:48:47.935Z,11.25
2023-03-14T10:51:28.968Z,15.57
2023-03-14T10:54:02.045Z,12.63
2023-03-14T10:56:35.423Z,21.60
2023-03-14T10:59:04.843Z,15.98
2023-03-14T11:02:00.634Z,12.18
2023-03-14T11:04:35.928Z,11.73
2023-03-14T11:07:13.943Z,13.05
2023-03-14T11:09:47.754Z,16.30
2023-03-14T11:12:42.432Z,19.00
2023-03-14T11:15:25.180Z,10.90
2023-03-14T11:18:25.741Z,12.07
2023-03-14T11:21:02.983Z,18.05
2023-03-14T11:23:42.315Z,9.83
2023-03-14T11:26:14.483Z,12.07
2023-03-14T11:28:46.153Z,11.50
2023-03-14T11:31:27.551Z,9.90
2023-03-14T11:34:28.414Z,11.18
2023-03-14T11:37:02.288Z,10.47
2023-03-14T11:39:39.657Z,10.43
2023-03-14T11:42:16.952Z,7.25
2023-03-14T11:44:49.011Z,10.98
2023-03-14T11:47:23.532Z,9.82
2023-03-14T11:49:59.217Z,9.07
2023-03-14T11:52:57.738Z,14.68
2023-03-14T11:55:31.319Z,15.68
2023-03-14T11:58:04.754Z,13.52
2023-03-14T12:00:31.568Z,11.65
2023-03-14T12:03:18.164Z,11.93
2023-03-14T12:05:56.348Z,8.23
2023-03-14T12:08:34.800Z,10.07
2023-03-14T12:11:33.019Z,9.20
2023-03-14T12:14:00.708Z,12.60
2023-03-14T12:16:40.349Z,7.17
2023-03-14T12:19:28.440Z,8.90
2023-03-14T12:22:19.819Z,9.43
2023-03-14T12:24:51.157Z,7.53
2023-03-14T12:27:39.437Z,8.73
2023-03-14T12:30:17.994Z,9.97
2023-03-14T12:33:10.414Z,4.47
2023-03-14T12:35:45.377Z,7.28
2023-03-14T12:38:30.362Z,6.00
2023-03-14T12:41:03.813Z,5.88
2023-03-14T12:43:32.950Z,5.23
2023-03-14T12:46:08.451Z,6.78
2023-03-14T12:48:35.193Z,8.88
2023-03-14T12:51:04.783Z,15.88
2023-03-14T12:53:55.598Z,7.18
2023-03-14T12:56:50.186Z,9.27
2023-03-14T12:59:30.471Z,5.72
2023-03-14T13:02:13.972Z,8.75
2023-03-14T13:04:43.160Z,3.65
2023-03-14T13:07:25.545Z,9.43
2023-03-14T13:10:12.346Z,5.13
2023-03-14T13:13:17.519Z,6.65
2023-03-14T13:15:47.231Z,7.78
2023-03-14T13:18:17.318Z,6.57
2023-03-14T13:21:18.068Z,7.25
2023-03-14T13:23:58.466Z,4.87
2023-03-14T13:26:32.905Z,9.20
2023-03-14T13:28:59.617Z,13.07
2023-03-14T13:31:27.579Z,9.05
2023-03-14T13:34:07.843Z,7.65
2023-03-14T13:36:36.704Z,11.93
2023-03-14T13:39:03.590Z,10.00
2023-03-14T13:41:30.226Z,6.30
2023-03-14T13:44:09.594Z,7.90
2023-03-14T13:46:37.529Z,10.52
2023-03-14T13:49:07.492Z,8.10
2023-03-14T13:51:34.465Z,4.38
2023-03-14T13:54:01.406Z,7.28
2023-03-14T13:56:31.088Z,8.43
2023-03-14T13:58:58.090Z,10.38
2023-03-14T14:01:42.695Z,7.03
2023-03-14T14:04:15.545Z,9.63
2023-03-14T14:06:50.669Z,6.35
2023-03-14T14:09:21.791Z,8.27
2023-03-14T14:12:14.272Z,7.30
2023-03-14T14:14:50.810Z,4.07
2023-03-14T14:17:21.645Z,5.97
2023-03-14T14:19:48.947Z,6.00
2023-03-14T14:22:15.822Z,6.88
2023-03-14T14:24:42.780Z,5.10
2023-03-14T14:27:15.376Z,5.90
2023-03-14T14:29:42.316Z,3.80
2023-03-14T14:32:09.180Z,4.93
2023-03-14T14:34:49.764Z,7.75
2023-03-14T14:37:26.340Z,6.20
2023-03-14T14:39:57.495Z,6.93
2023-03-14T14:42:28.739Z,3.42
2023-03-14T14:44:57.809Z,6.65
2023-03-14T14:47:26.632Z,7.40
2023-03-14T14:49:55.259Z,3.08
2023-03-14T14:52:34.491Z,5.80
2023-03-14T14:55:02.728Z,5.72
2023-03-14T14:57:33.815Z,6.20
2023-03-14T15:00:20.177Z,6.75
2023-03-14T15:02:49.521Z,5.65
2023-03-14T15:05:18.701Z,4.27
2023-03-14T15:07:46.304Z,5.00
2023-03-14T15:10:16.257Z,6.80
2023-03-14T15:12:44.052Z,6.30
2023-03-14T15:15:12.289Z,4.47
2023-03-14T15:17:39.039Z,7.93
2023-03-14T15:20:07.617Z,3.70
2023-03-14T15:22:34.104Z,4.78
2023-03-14T15:25:00.597Z,6.60
2023-03-14T15:27:29.551Z,5.30
2023-03-14T15:29:56.470Z,4.33
2023-03-14T15:32:22.911Z,3.63
2023-03-14T15:34:49.443Z,6.75
2023-03-14T15:37:17.899Z,5.78
2023-03-14T15:39:44.465Z,5.03
2023-03-14T15:42:11.024Z,6.83
2023-03-14T15:44:37.334Z,5.10
2023-03-14T15:47:04.128Z,5.43
2023-03-14T15:49:30.411Z,7.15
2023-03-14T15:51:57.952Z,5.82
2023-03-14T15:54:25.252Z,1.87
2023-03-14T15:56:51.638Z,5.68
2023-03-14T15:59:18.137Z,7.47
2023-03-14T16:01:44.492Z,8.05
2023-03-14T16:04:10.842Z,9.07
2023-03-14T16:06:37.199Z,5.40
2023-03-14T16:09:03.659Z,4.97
2023-03-14T16:11:30.082Z,9.85
2023-03-14T16:13:56.530Z,8.55
2023-03-14T16:16:22.979Z,16.00
2023-03-14T16:18:49.425Z,6.93
2023-03-14T16:21:18.059Z,8.38
2023-03-14T16:23:45.020Z,6.05
2023-03-14T16:26:14.374Z,6.78
2023-03-14T16:28:41.422Z,8.77
2023-03-14T16:31:11.164Z,11.27
2023-03-14T16:33:39.129Z,6.45
2023-03-14T16:36:07.885Z,5.68
2023-03-14T16:38:42.391Z,5.63
2023-03-14T16:41:20.320Z,9.35
2023-03-14T16:43:47.098Z,9.43
2023-03-14T16:46:18.212Z,4.32
2023-03-14T16:48:44.885Z,4.28
2023-03-14T16:51:11.308Z,8.20
2023-03-14T16:53:37.753Z,5.18
2023-03-14T16:56:04.437Z,4.20
2023-03-14T16:58:30.788Z,9.30
2023-03-14T17:00:58.209Z,6.60
2023-03-14T17:03:25.289Z,5.32
2023-03-14T17:05:52.831Z,7.05
2023-03-14T17:08:20.919Z,10.43
2023-03-14T17:10:47.478Z,5.22
2023-03-14T17:13:14.309Z,3.60
2023-03-14T17:15:45.900Z,7.28
2023-03-14T17:18:12.459Z,6.40
2023-03-14T17:20:38.820Z,5.07
2023-03-14T17:23:05.235Z,12.88
2023-03-14T17:25:31.717Z,12.18
2023-03-14T17:27:58.112Z,2.90
2023-03-14T17:30:24.500Z,7.57
2023-03-14T17:32:50.852Z,9.77
2023-03-14T17:35:17.494Z,6.03
2023-03-14T17:37:43.815Z,6.78
2023-03-14T17:40:11.077Z,3.80
2023-03-14T17:42:37.620Z,4.68
2023-03-14T17:45:04.668Z,8.97
2023-03-14T17:47:31.117Z,9.45
2023-03-14T17:49:57.450Z,8.45
2023-03-14T17:52:23.979Z,9.68
2023-03-14T17:54:50.435Z,4.80
2023-03-14T17:57:16.864Z,3.57
2023-03-14T17:59:43.385Z,7.43
2023-03-14T18:02:10.225Z,6.22
2023-03-14T18:04:36.815Z,8.68
2023-03-14T18:07:03.316Z,11.10
2023-03-14T18:09:30.422Z,6.10
2023-03-14T18:12:07.059Z,5.53
2023-03-14T18:14:35.558Z,9.48
2023-03-14T18:17:02.366Z,4.43
2023-03-14T18:19:28.777Z,8.20
2023-03-14T18:21:55.184Z,4.23
2023-03-14T18:24:21.640Z,5.97
2023-03-14T18:26:48.242Z,6.25
2023-03-14T18:29:14.983Z,4.85
2023-03-14T18:31:44.686Z,9.00
2023-03-14T18:34:12.131Z,5.97
2023-03-14T18:36:38.961Z,6.00
2023-03-14T18:39:06.633Z,6.40
2023-03-14T18:41:35.114Z,6.63
2023-03-14T18:44:02.582Z,5.40
2023-03-14T18:46:29.612Z,6.43
2023-03-14T18:48:56.452Z,7.00
2023-03-14T18:51:28.064Z,6.57
2023-03-14T18:54:02.854Z,6.53
2023-03-14T18:56:38.651Z,8.57
2023-03-14T18:59:05.062Z,3.47
2023-03-14T19:01:31.498Z,7.10
2023-03-14T19:03:58.954Z,6.60
2023-03-14T19:06:25.352Z,6.68
2023-03-14T19:08:51.679Z,5.15
2023-03-14T19:11:17.960Z,4.30
2023-03-14T19:13:44.298Z,6.97
2023-03-14T19:16:15.469Z,6.13
2023-03-14T19:18:41.935Z,6.97
2023-03-14T19:21:10.932Z,7.43
2023-03-14T19:23:39.736Z,4.63
2023-03-14T19:26:06.499Z,7.97
2023-03-14T19:28:33.404Z,6.53
2023-03-14T19:31:02.489Z,5.00
2023-03-14T19:33:30.168Z,8.70
2023-03-14T19:35:56.829Z,5.03
2023-03-14T19:38:23.220Z,4.63
2023-03-14T19:40:49.602Z,4.57
2023-03-14T19:43:16.246Z,12.48
2023-03-14T19:45:43.190Z,7.90
2023-03-14T19:48:11.321Z,9.30
2023-03-14T19:50:37.841Z,7.72
2023-03-14T19:53:04.816Z,8.85
2023-03-14T19:55:31.200Z,9.55
2023-03-14T19:57:57.510Z,10.30
2023-03-14T20:00:23.907Z,7.60
2023-03-14T20:02:51.986Z,8.82
2023-03-14T20:05:20.906Z,5.63
2023-03-14T20:07:48.522Z,8.07
2023-03-14T20:10:17.152Z,9.60
2023-03-14T20:12:46.452Z,7.93
2023-03-14T20:15:14.518Z,7.65
2023-03-14T20:17:41.023Z,4.60
2023-03-14T20:20:08.690Z,6.47
2023-03-14T20:22:36.383Z,9.00
2023-03-14T20:25:03.241Z,7.13
2023-03-14T20:27:29.532Z,5.85
2023-03-14T20:29:57.146Z,7.85
2023-03-14T20:32:23.682Z,7.70
2023-03-14T20:34:50.074Z,5.25
2023-03-14T20:37:16.437Z,7.20
2023-03-14T20:39:43.069Z,11.02
2023-03-14T20:42:09.392Z,8.98
2023-03-14T20:44:35.754Z,13.52
2023-03-14T20:47:02.199Z,6.40
2023-03-14T20:49:28.529Z,13.60
2023-03-14T20:51:55.075Z,15.43
2023-03-14T20:54:21.402Z,9.93
2023-03-14T20:56:47.733Z,6.55
2023-03-14T20:59:14.161Z,9.23
2023-03-14T21:04:25.420Z,10.10
2023-03-14T21:06:52.516Z,6.60
2023-03-14T21:09:18.808Z,7.72
2023-03-14T21:11:45.550Z,12.50
2023-03-14T21:14:11.821Z,7.20
2023-03-14T21:16:38.187Z,8.63
2023-03-14T21:19:04.529Z,7.65
2023-03-14T21:21:30.812Z,7.10
2023-03-14T21:23:57.089Z,12.98
2023-03-14T21:26:23.363Z,6.30
2023-03-14T21:28:49.646Z,7.65
2023-03-14T21:31:15.982Z,7.20
2023-03-14T21:33:42.487Z,5.40
2023-03-14T21:36:09.040Z,7.25
2023-03-14T21:38:35.406Z,7.13
2023-03-14T21:41:01.903Z,5.88
2023-03-14T21:43:28.699Z,5.43
2023-03-14T21:45:55.332Z,8.38
2023-03-14T21:48:22.118Z,5.40
2023-03-14T21:50:48.705Z,6.97
2023-03-14T21:53:15.077Z,4.85
2023-03-14T21:55:46.375Z,6.63
2023-03-14T21:58:14.338Z,6.32
2023-03-14T22:00:42.154Z,2.72
2023-03-14T22:03:13.278Z,7.23
2023-03-14T22:05:47.851Z,6.22
2023-03-14T22:08:15.580Z,6.28
2023-03-14T22:10:46.957Z,7.35
2023-03-14T22:13:13.574Z,6.53
2023-03-14T22:15:39.918Z,4.23
2023-03-14T22:18:06.198Z,3.42
2023-03-14T22:20:32.898Z,4.00
2023-03-14T22:22:59.214Z,5.55
2023-03-14T22:25:25.611Z,5.07
2023-03-14T22:27:51.909Z,4.17
2023-03-14T22:30:18.251Z,4.78
2023-03-14T22:32:44.602Z,4.35
2023-03-14T22:35:10.931Z,6.60
2023-03-14T22:37:39.280Z,8.43
2023-03-14T22:40:07.953Z,6.20
2023-03-14T22:42:34.247Z,4.20
2023-03-14T22:45:00.522Z,5.28
2023-03-14T22:47:26.899Z,4.90
2023-03-14T22:49:53.183Z,3.95
2023-03-14T22:52:19.511Z,3.37
2023-03-14T22:54:45.793Z,4.35
2023-03-14T22:57:12.197Z,2.35
2023-03-14T22:59:38.475Z,2.13
2023-03-14T23:02:04.867Z,4.28
2023-03-14T23:04:31.202Z,1.93
2023-03-14T23:06:57.507Z,3.55
2023-03-14T23:09:23.828Z,4.07
2023-03-14T23:11:50.103Z,7.25
2023-03-14T23:14:16.360Z,3.35
2023-03-14T23:16:42.652Z,3.03
2023-03-14T23:19:09.243Z,2.50
2023-03-14T23:21:35.562Z,1.95
2023-03-14T23:24:01.848Z,3.90
2023-03-14T23:26:28.170Z,2.42
2023-03-14T23:29:06.700Z,0.90
2023-03-14T23:31:44.518Z,1.05
2023-03-14T23:34:46.850Z,1.85
2023-03-14T23:37:21.234Z,1.98
2023-03-14T23:39:55.508Z,2.00
2023-03-14T23:42:21.822Z,2.07
2023-03-14T23:44:48.114Z,2.30
2023-03-14T23:47:14.668Z,1.20
2023-03-14T23:49:41.107Z,2.17
2023-03-14T23:52:08.602Z,1.98
2023-03-14T23:54:35.766Z,2.80
2023-03-14T23:57:02.590Z,2.45
2023-03-14T23:59:29.083Z,0.90
